Time;durP1;ratioP1;P1;durP2;ratioP2;P2;SDS_P1;SDS_P2;PMS_P1;PMS_P2;Temp;Humidity;BMP_temperature;BMP_pressure;BME280_temperature;BME280_humidity;BME280_pressure;Samples;Min_cycle;Max_cycle;Signal;HPM_P1;HPM_P2
2021/06/27 00:02:09;;;;;;;7.63;5.97;;;;;;;21.16;59.10;100226.00;10351121;28;20411;-55
2021/06/27 00:07:10;;;;;;;6.57;6.03;;;;;;;21.11;59.29;100228.47;10352138;28;20037;-55
2021/06/27 00:12:12;;;;;;;6.32;5.72;;;;;;;21.05;59.44;100226.53;10362688;28;20437;-55
2021/06/27 00:17:14;;;;;;;6.60;6.00;;;;;;;21.01;59.38;100228.78;10347817;28;20052;-55
2021/06/27 00:22:15;;;;;;;6.85;6.28;;;;;;;20.95;59.70;100234.13;10351285;28;20058;-54
2021/06/27 00:27:19;;;;;;;7.53;6.93;;;;;;;20.90;59.89;100229.28;10354166;28;20050;-55
2021/06/27 00:32:21;;;;;;;6.75;6.15;;;;;;;20.81;60.22;100223.16;10349088;28;20549;-55
2021/06/27 00:37:23;;;;;;;6.13;5.53;;;;;;;20.71;60.45;100222.63;10360659;28;20042;-55
2021/06/27 00:42:24;;;;;;;7.05;6.45;;;;;;;20.64;60.85;100213.56;10351644;28;20045;-56
2021/06/27 00:47:31;;;;;;;6.45;5.85;;;;;;;20.56;61.07;100208.28;10348175;28;20045;-55
2021/06/27 00:52:32;;;;;;;7.18;6.57;;;;;;;20.54;61.45;100199.53;10352712;28;20049;-56
2021/06/27 00:57:36;;;;;;;7.18;6.43;;;;;;;20.48;61.52;100206.53;10354455;28;20518;-56
2021/06/27 01:02:40;;;;;;;6.53;6.03;;;;;;;20.46;61.52;100211.28;10355544;28;20425;-55
2021/06/27 01:07:42;;;;;;;6.38;5.60;;;;;;;20.39;61.49;100210.38;10362856;28;20050;-56
2021/06/27 01:12:44;;;;;;;6.30;5.70;;;;;;;20.36;61.57;100219.69;10350602;28;20049;-56
2021/06/27 01:17:49;;;;;;;6.53;6.03;;;;;;;20.31;61.77;100214.00;10362514;28;20052;-54
2021/06/27 01:22:52;;;;;;;6.53;6.03;;;;;;;20.27;61.98;100223.53;10370381;28;20590;-56
2021/06/27 01:27:55;;;;;;;6.82;6.22;;;;;;;20.24;61.77;100223.91;10364072;28;20492;-55
2021/06/27 01:33:01;;;;;;;6.93;6.40;;;;;;;20.10;62.03;100204.81;10365874;28;20053;-55
2021/06/27 01:38:04;;;;;;;6.53;5.88;;;;;;;20.21;61.98;100221.59;10359756;28;20058;-54
2021/06/27 01:43:08;;;;;;;7.55;5.82;;;;;;;20.20;61.90;100231.53;10339728;28;20042;-54
2021/06/27 01:48:10;;;;;;;6.85;6.20;;;;;;;20.21;61.94;100226.97;10348993;28;20388;-56
2021/06/27 01:53:15;;;;;;;6.07;5.55;;;;;;;20.17;61.91;100229.22;10354011;28;20068;-62
2021/06/27 01:58:16;;;;;;;7.10;6.50;;;;;;;20.17;62.12;100225.66;10346723;28;20054;-55
2021/06/27 02:03:18;;;;;;;6.50;5.90;;;;;;;20.19;62.38;100220.91;10351881;28;20081;-55
2021/06/27 02:08:19;;;;;;;6.85;6.25;;;;;;;20.18;62.25;100220.09;10364743;28;20049;-55
2021/06/27 02:13:21;;;;;;;6.28;5.70;;;;;;;20.21;62.15;100210.78;10352990;28;20057;-55
2021/06/27 02:18:27;;;;;;;7.75;7.10;;;;;;;20.15;62.25;100217.75;10348529;28;20567;-56
2021/06/27 02:23:29;;;;;;;6.40;5.90;;;;;;;20.08;62.20;100211.41;10366042;28;20041;-55
2021/06/27 02:28:31;;;;;;;7.03;6.43;;;;;;;20.14;62.29;100211.50;10363967;28;20045;-55
2021/06/27 02:33:33;;;;;;;6.18;5.57;;;;;;;20.10;62.21;100218.31;10359867;28;20498;-54
2021/06/27 02:38:35;;;;;;;6.63;6.03;;;;;;;20.13;62.19;100217.94;10363552;28;20046;-56
2021/06/27 02:43:38;;;;;;;6.25;5.63;;;;;;;20.13;62.15;100208.97;10364132;28;20053;-55
2021/06/27 02:48:40;;;;;;;7.27;6.63;;;;;;;20.10;62.24;100204.81;10360684;28;20063;-54
2021/06/27 02:53:42;;;;;;;7.15;6.47;;;;;;;20.04;62.10;100194.75;10360462;28;20056;-55
2021/06/27 02:58:47;;;;;;;6.90;6.25;;;;;;;20.09;62.04;100197.72;10351288;28;20500;-55
2021/06/27 03:03:52;;;;;;;6.78;6.05;;;;;;;20.08;62.06;100198.72;10354806;28;20065;-56
2021/06/27 03:08:54;;;;;;;6.72;6.22;;;;;;;20.10;62.15;100185.91;10367672;28;20050;-55
2021/06/27 03:13:56;;;;;;;7.35;6.30;;;;;;;20.07;62.06;100172.75;10362141;28;20432;-55
2021/06/27 03:18:57;;;;;;;6.60;6.00;;;;;;;20.05;61.88;100172.09;10352140;28;20053;-60
2021/06/27 03:23:59;;;;;;;6.18;5.68;;;;;;;20.10;61.78;100169.69;10364833;28;20046;-53
2021/06/27 03:29:01;;;;;;;6.40;5.88;;;;;;;20.09;61.99;100165.28;10357396;28;20052;-61
2021/06/27 03:34:02;;;;;;;8.77;6.70;;;;;;;20.04;62.28;100159.63;10362147;28;20053;-55
2021/06/27 03:39:09;;;;;;;7.07;6.47;;;;;;;19.99;62.14;100159.34;10356759;28;20049;-54
2021/06/27 03:44:12;;;;;;;7.22;6.53;;;;;;;19.91;62.43;100140.53;10358380;28;20046;-54
2021/06/27 03:49:14;;;;;;;6.60;6.00;;;;;;;19.96;62.41;100163.25;10363829;28;20057;-53
2021/06/27 03:54:17;;;;;;;6.32;5.80;;;;;;;19.94;62.62;100162.59;10347751;28;20053;-58
2021/06/27 03:59:18;;;;;;;6.32;5.72;;;;;;;19.90;62.85;100155.06;10353787;28;20045;-53
2021/06/27 04:04:20;;;;;;;6.80;6.30;;;;;;;19.94;62.82;100161.78;10349196;28;20124;-55
2021/06/27 04:09:21;;;;;;;7.53;6.82;;;;;;;19.96;62.86;100165.13;10349547;28;20061;-53
2021/06/27 04:14:23;;;;;;;7.43;5.90;;;;;;;19.86;62.84;100146.50;10354520;28;20053;-52
2021/06/27 04:19:24;;;;;;;8.18;7.40;;;;;;;19.96;62.88;100175.94;10363038;28;20149;-56
2021/06/27 04:24:26;;;;;;;6.80;6.20;;;;;;;19.95;62.89;100163.44;10351057;28;20053;-52
2021/06/27 04:29:28;;;;;;;7.32;6.53;;;;;;;19.89;63.30;100173.16;10359016;28;20063;-54
2021/06/27 04:34:29;;;;;;;7.25;6.47;;;;;;;19.78;63.42;100155.50;10344772;28;20049;-57
2021/06/27 04:39:31;;;;;;;8.27;6.82;;;;;;;19.90;63.43;100157.75;10361371;28;20049;-56
2021/06/27 04:44:32;;;;;;;5.95;5.38;;;;;;;19.98;63.55;100162.22;10367005;28;20076;-55
2021/06/27 04:49:35;;;;;;;7.68;6.85;;;;;;;20.04;62.91;100167.72;10366069;28;20053;-55
2021/06/27 04:54:37;;;;;;;7.00;6.30;;;;;;;20.12;62.66;100156.81;10354598;28;20057;-55
2021/06/27 04:59:39;;;;;;;8.95;7.50;;;;;;;20.17;62.50;100166.22;10364065;28;20042;-55
2021/06/27 05:04:40;;;;;;;7.10;6.50;;;;;;;20.28;62.00;100173.84;10365722;28;20100;-55
2021/06/27 05:09:42;;;;;;;7.05;6.45;;;;;;;20.30;62.09;100164.53;10368130;28;20046;-54
2021/06/27 05:14:43;;;;;;;7.57;6.80;;;;;;;20.47;61.84;100173.22;10359154;28;20049;-55
2021/06/27 05:19:45;;;;;;;7.53;6.63;;;;;;;20.55;61.46;100184.97;10361553;28;20499;-54
2021/06/27 05:24:47;;;;;;;6.72;5.93;;;;;;;20.60;61.04;100161.75;10354997;28;20053;-56
2021/06/27 05:29:48;;;;;;;6.82;6.13;;;;;;;20.84;60.44;100178.66;10356140;28;20042;-56
2021/06/27 05:34:50;;;;;;;7.03;6.43;;;;;;;20.95;60.09;100164.63;10365285;28;20346;-54
2021/06/27 05:39:51;;;;;;;6.03;5.43;;;;;;;20.99;59.79;100171.31;10363490;28;20049;-57
2021/06/27 05:44:53;;;;;;;7.47;6.00;;;;;;;20.99;60.02;100159.66;10357511;28;21032;-54
2021/06/27 05:49:54;;;;;;;6.70;6.10;;;;;;;20.89;60.37;100148.34;10316310;28;20068;-53
2021/06/27 05:54:56;;;;;;;5.95;5.45;;;;;;;20.84;60.70;100152.44;10309580;28;20065;-54
2021/06/27 05:59:58;;;;;;;6.10;5.50;;;;;;;20.77;60.83;100159.66;10305763;28;20527;-58
2021/06/27 06:04:59;;;;;;;6.72;6.15;;;;;;;20.80;61.10;100155.72;10312609;28;20069;-55
2021/06/27 06:10:01;;;;;;;6.03;5.53;;;;;;;20.71;61.22;100130.69;10318621;28;20381;-55
2021/06/27 06:15:03;;;;;;;6.25;5.65;;;;;;;20.95;61.27;100158.38;10317376;28;20765;-55
2021/06/27 06:20:06;;;;;;;8.50;5.70;;;;;;;21.19;60.91;100165.25;10322598;28;20062;-55
2021/06/27 06:25:08;;;;;;;6.83;6.23;;;;;;;21.46;59.91;100177.13;10323056;28;20093;-57
2021/06/27 06:30:11;;;;;;;6.35;5.75;;;;;;;21.61;59.45;100168.09;10321397;28;20053;-55
2021/06/27 06:35:12;;;;;;;6.93;6.22;;;;;;;21.86;58.97;100166.59;10317552;28;20046;-55
2021/06/27 06:40:14;;;;;;;5.88;5.28;;;;;;;22.22;58.14;100153.84;10320462;28;20057;-55
2021/06/27 06:45:16;;;;;;;6.05;5.47;;;;;;;22.31;57.54;100146.34;10315270;28;20050;-54
2021/06/27 06:50:17;;;;;;;7.15;6.55;;;;;;;22.38;57.41;100141.81;10319896;28;20110;-54
2021/06/27 06:55:23;;;;;;;6.85;6.22;;;;;;;22.49;57.15;100149.38;10317188;28;20501;-56
2021/06/27 07:00:24;;;;;;;5.78;5.18;;;;;;;22.58;57.17;100141.88;10317418;28;20472;-54
2021/06/27 07:05:26;;;;;;;6.47;5.55;;;;;;;22.60;57.14;100153.34;10318591;28;21317;-55
2021/06/27 07:10:27;;;;;;;6.45;5.72;;;;;;;22.54;57.12;100157.72;10311101;28;20057;-56
2021/06/27 07:15:29;;;;;;;6.78;5.60;;;;;;;22.68;57.29;100168.59;10310457;28;20054;-60
2021/06/27 07:20:31;;;;;;;6.38;5.90;;;;;;;22.82;57.49;100169.47;10307190;28;20097;-54
2021/06/27 07:25:33;;;;;;;6.47;5.88;;;;;;;23.14;57.48;100162.44;10306499;28;20072;-55
2021/06/27 07:30:35;;;;;;;6.38;5.65;;;;;;;23.33;56.37;100159.91;10311706;28;20979;-54
2021/06/27 07:35:37;;;;;;;7.43;6.07;;;;;;;23.33;56.53;100138.19;10304174;28;20787;-55
2021/06/27 07:40:40;;;;;;;5.97;5.47;;;;;;;23.73;55.92;100147.09;10307085;28;20143;-53
2021/06/27 07:45:43;;;;;;;5.88;5.38;;;;;;;24.03;54.99;100149.34;10307726;28;20047;-55
2021/06/27 07:50:44;;;;;;;5.28;4.88;;;;;;;24.41;54.56;100150.44;10302170;28;20684;-57
2021/06/27 07:55:48;;;;;;;5.70;5.30;;;;;;;24.48;53.55;100143.09;10301628;28;20061;-57
2021/06/27 08:00:50;;;;;;;6.63;6.03;;;;;;;24.31;53.49;100150.94;10306194;28;20046;-56
2021/06/27 08:05:51;;;;;;;5.60;5.10;;;;;;;24.31;54.08;100140.88;10306044;28;20045;-56
2021/06/27 08:10:53;;;;;;;5.53;5.03;;;;;;;24.26;54.25;100154.31;10304445;28;20161;-56
2021/06/27 08:15:57;;;;;;;5.82;5.28;;;;;;;24.28;54.34;100146.75;10300946;28;20050;-55
2021/06/27 08:21:00;;;;;;;5.78;5.38;;;;;;;24.67;53.29;100144.88;10302225;28;20057;-56
2021/06/27 08:26:05;;;;;;;5.43;4.88;;;;;;;25.04;53.11;100144.19;10300647;28;20211;-54
2021/06/27 08:31:07;;;;;;;5.40;5.00;;;;;;;25.19;52.06;100157.50;10299212;28;20524;-55
2021/06/27 08:36:09;;;;;;;5.50;5.10;;;;;;;25.32;50.78;100145.69;10304806;28;20054;-55
2021/06/27 08:41:14;;;;;;;5.47;5.05;;;;;;;25.34;51.00;100140.84;10303549;28;20046;-56
2021/06/27 08:46:16;;;;;;;6.40;5.85;;;;;;;25.68;50.76;100144.91;10301446;28;20050;-56
2021/06/27 08:51:18;;;;;;;5.95;5.53;;;;;;;25.82;49.59;100148.34;10305531;28;20706;-54
2021/06/27 08:56:20;;;;;;;5.25;4.65;;;;;;;25.91;49.60;100143.41;10304242;28;20045;-56
2021/06/27 09:01:22;;;;;;;5.45;5.03;;;;;;;25.92;48.90;100124.06;10304157;28;20054;-62
2021/06/27 09:06:31;;;;;;;5.10;4.60;;;;;;;26.33;48.46;100135.34;10316919;28;20116;-55
2021/06/27 09:11:33;;;;;;;5.78;5.38;;;;;;;26.64;47.05;100126.09;10307834;28;20045;-57
2021/06/27 09:16:34;;;;;;;4.70;4.30;;;;;;;27.06;46.60;100125.25;10299603;28;20078;-54
2021/06/27 09:21:36;;;;;;;4.82;4.53;;;;;;;27.54;45.84;100138.97;10302145;28;20447;-56
2021/06/27 09:26:38;;;;;;;5.93;5.07;;;;;;;28.04;43.31;100135.69;10305192;28;20155;-57
2021/06/27 09:31:42;;;;;;;5.07;4.68;;;;;;;28.59;43.14;100134.31;10310055;28;20059;-57
2021/06/27 09:36:46;;;;;;;5.00;4.60;;;;;;;28.97;41.83;100118.28;10313244;28;20038;-54
2021/06/27 09:41:55;;;;;;;4.85;4.40;;;;;;;29.21;40.10;100111.56;10307668;28;20058;-57
2021/06/27 09:46:57;;;;;;;3.92;3.50;;;;;;;29.54;39.87;100107.09;10310498;28;20181;-57
2021/06/27 09:52:09;;;;;;;4.60;4.20;;;;;;;29.61;38.08;100091.31;10311516;28;20054;-54
2021/06/27 09:57:20;;;;;;;4.75;3.67;;;;;;;29.71;38.21;100100.75;10306494;28;20061;-55
2021/06/27 10:02:26;;;;;;;5.10;4.60;;;;;;;29.47;38.94;100102.88;10310023;28;20046;-55
2021/06/27 10:07:38;;;;;;;3.73;3.50;;;;;;;29.37;38.48;100089.88;10311976;28;20057;-56
2021/06/27 10:12:39;;;;;;;3.75;3.45;;;;;;;29.53;38.30;100091.75;10312482;28;20046;-54
2021/06/27 10:17:46;;;;;;;4.03;3.72;;;;;;;29.94;36.78;100077.75;10310573;28;20046;-55
2021/06/27 10:22:48;;;;;;;3.40;3.20;;;;;;;30.43;34.76;100079.66;10311094;28;20056;-57
2021/06/27 10:27:51;;;;;;;4.50;3.60;;;;;;;30.73;33.12;100087.38;10307120;28;20053;-55
2021/06/27 10:32:54;;;;;;;3.10;2.90;;;;;;;31.15;31.40;100081.13;10311270;28;20054;-59
2021/06/27 10:37:56;;;;;;;3.83;3.53;;;;;;;31.37;32.67;100061.72;10310193;28;20054;-56
2021/06/27 10:42:59;;;;;;;3.22;2.92;;;;;;;31.88;32.15;100063.09;10309830;28;20061;-56
2021/06/27 10:48:05;;;;;;;3.78;3.05;;;;;;;31.73;30.99;100075.66;10357342;28;20046;-58
2021/06/27 10:53:06;;;;;;;3.00;2.70;;;;;;;31.64;30.76;100066.28;10356927;28;20046;-56
2021/06/27 10:58:17;;;;;;;3.28;3.03;;;;;;;31.74;30.61;100062.75;10357246;28;22175;-57
2021/06/27 11:03:31;;;;;;;5.35;3.30;;;;;;;32.01;31.25;100059.00;10348758;28;20045;-55
2021/06/27 11:08:41;;;;;;;3.58;3.33;;;;;;;32.26;30.08;100052.72;10342262;28;20042;-57
2021/06/27 11:14:04;;;;;;;3.92;3.25;;;;;;;32.58;29.87;100051.69;10342620;28;20122;-55
2021/06/27 11:19:24;;;;;;;3.17;2.97;;;;;;;32.10;30.78;100053.78;10344260;28;20041;-54
2021/06/27 11:24:31;;;;;;;3.10;2.90;;;;;;;32.27;31.04;100037.88;10349824;28;20069;-56
2021/06/27 11:29:33;;;;;;;2.88;2.67;;;;;;;32.03;29.91;100038.34;10344526;28;20053;-56
2021/06/27 11:34:36;;;;;;;;;;;;;;;31.90;29.96;100030.59;10344841;28;20050;-56
2021/06/27 11:39:49;;;;;;;3.28;2.97;;;;;;;31.99;30.60;100040.00;10340815;28;19928;-55
2021/06/27 11:45:06;;;;;;;2.97;2.65;;;;;;;31.75;30.77;100028.63;10347501;28;20065;-55
2021/06/27 11:50:18;;;;;;;2.97;2.78;;;;;;;32.14;30.47;100025.44;10342567;28;20049;-56
2021/06/27 11:55:24;;;;;;;3.20;3.00;;;;;;;32.16;29.24;100017.78;10351118;28;20072;-60
2021/06/27 12:00:36;;;;;;;3.80;2.58;;;;;;;32.04;29.16;100014.41;10353399;28;20398;-54
2021/06/27 12:05:39;;;;;;;2.92;2.70;;;;;;;31.71;30.36;100011.84;10338261;28;20045;-56
2021/06/27 12:10:41;;;;;;;2.47;2.28;;;;;;;31.60;29.83;100021.16;10341722;28;20042;-56
2021/06/27 12:15:46;;;;;;;3.78;2.88;;;;;;;31.73;30.56;100001.38;10343777;28;20050;-56
2021/06/27 12:20:51;;;;;;;3.42;3.08;;;;;;;31.59;30.58;100011.25;10347140;28;20164;-56
2021/06/27 12:26:00;;;;;;;4.78;2.67;;;;;;;31.80;30.11;100003.06;10335639;28;20792;-56
2021/06/27 12:31:18;;;;;;;3.33;2.72;;;;;;;32.05;29.04;99997.63;10330541;28;20042;-57
2021/06/27 12:36:24;;;;;;;3.45;3.25;;;;;;;32.20;28.43;99987.75;10339239;28;20045;-57
2021/06/27 12:41:30;;;;;;;3.13;2.92;;;;;;;31.98;29.71;99987.97;10346180;28;20403;-56
2021/06/27 12:46:42;;;;;;;3.22;3.03;;;;;;;32.07;28.74;99991.84;10335076;23;20677;-63
2021/06/27 12:51:47;;;;;;;2.97;2.55;;;;;;;31.90;28.91;99978.31;10343745;28;20046;-61
2021/06/27 12:57:12;;;;;;;2.60;2.47;;;;;;;31.61;29.70;99981.56;10331205;28;20495;-61
2021/06/27 13:02:21;;;;;;;3.10;2.80;;;;;;;31.25;30.06;99970.38;10317458;28;20046;-61
2021/06/27 13:07:36;;;;;;;3.13;2.88;;;;;;;31.24;29.51;99968.72;10294001;28;20494;-61
2021/06/27 13:12:40;;;;;;;2.50;2.33;;;;;;;31.41;30.28;99964.94;10303379;28;20054;-61
2021/06/27 13:18:03;;;;;;;2.55;2.40;;;;;;;31.66;29.92;99975.25;10320160;28;20045;-61
2021/06/27 13:23:06;;;;;;;2.60;2.40;;;;;;;31.87;29.92;99962.34;10319227;28;20046;-61
2021/06/27 13:28:10;;;;;;;3.00;2.80;;;;;;;31.74;29.86;99955.47;10316915;28;20042;-63
2021/06/27 13:33:17;;;;;;;3.13;2.85;;;;;;;31.72;29.58;99958.50;10317542;28;20046;-61
2021/06/27 13:38:20;;;;;;;2.95;2.70;;;;;;;31.77;30.12;99965.09;10312208;28;20070;-61
2021/06/27 13:43:22;;;;;;;2.65;2.30;;;;;;;31.71;29.87;99951.31;10320712;28;20056;-61
2021/06/27 13:48:24;;;;;;;3.38;2.53;;;;;;;31.50;30.42;99949.59;10316277;28;20046;-61
2021/06/27 13:53:25;;;;;;;2.63;2.42;;;;;;;31.39;29.84;99954.22;10316467;28;20054;-61
2021/06/27 13:58:27;;;;;;;3.25;2.92;;;;;;;30.95;30.68;99946.31;10314115;28;20063;-61
2021/06/27 14:03:28;;;;;;;3.55;3.25;;;;;;;30.77;31.63;99944.81;10319266;28;21214;-61
2021/06/27 14:08:30;;;;;;;3.20;3.00;;;;;;;30.77;31.35;99947.56;10315522;28;20101;-61
2021/06/27 14:13:36;;;;;;;2.83;2.63;;;;;;;30.76;31.60;99945.91;10317017;28;20053;-61
2021/06/27 14:18:39;;;;;;;3.05;2.85;;;;;;;30.76;31.56;99946.75;10320625;28;20064;-60
2021/06/27 14:23:42;;;;;;;3.63;3.33;;;;;;;30.58;32.10;99942.50;10299619;28;20053;-61
2021/06/27 14:28:44;;;;;;;2.90;2.70;;;;;;;30.28;32.45;99946.66;10300301;28;20144;-64
2021/06/27 14:33:45;;;;;;;3.03;2.83;;;;;;;30.08;32.50;99935.50;10308218;28;20049;-64
2021/06/27 14:38:47;;;;;;;3.27;3.07;;;;;;;29.84;32.29;99935.00;10333241;28;20282;-61
2021/06/27 14:43:49;;;;;;;3.35;2.80;;;;;;;29.85;33.02;99926.50;10321168;28;20042;-61
2021/06/27 14:48:50;;;;;;;4.20;3.03;;;;;;;29.91;32.55;99913.66;10321252;28;20046;-61
2021/06/27 14:53:52;;;;;;;3.43;3.13;;;;;;;30.09;33.09;99918.75;10325632;28;20292;-61
2021/06/27 14:59:13;;;;;;;3.38;3.00;;;;;;;30.26;32.27;99926.84;10312169;28;20292;-61
2021/06/27 15:04:15;;;;;;;2.58;2.38;;;;;;;30.27;32.22;99917.53;10322436;28;20526;-66
2021/06/27 15:09:16;;;;;;;2.63;2.43;;;;;;;30.28;32.43;99916.44;10316784;28;20522;-62
2021/06/27 15:14:18;;;;;;;3.40;3.10;;;;;;;30.21;32.23;99917.78;10321350;28;20064;-62
2021/06/27 15:19:20;;;;;;;4.05;3.17;;;;;;;30.14;32.78;99917.97;10318758;28;20065;-61
2021/06/27 15:24:21;;;;;;;2.70;2.50;;;;;;;30.08;33.09;99914.34;10325866;28;20442;-62
2021/06/27 15:29:25;;;;;;;3.37;3.07;;;;;;;30.07;32.45;99911.88;10317465;28;20049;-61
2021/06/27 15:34:29;;;;;;;2.80;2.60;;;;;;;30.15;32.71;99909.47;10315948;28;20312;-62
2021/06/27 15:39:30;;;;;;;3.53;3.33;;;;;;;29.92;32.82;99913.41;10292007;28;20056;-62
2021/06/27 15:44:33;;;;;;;3.20;3.00;;;;;;;29.71;33.17;99917.00;10308522;28;20061;-62
2021/06/27 15:49:35;;;;;;;3.35;3.05;;;;;;;29.56;33.84;99923.13;10308312;28;20050;-61
2021/06/27 15:54:36;;;;;;;2.77;2.57;;;;;;;29.40;34.33;99925.72;10307968;28;20065;-62
2021/06/27 15:59:38;;;;;;;3.83;3.35;;;;;;;29.27;34.83;99928.84;10295410;28;20066;-61
2021/06/27 16:04:40;;;;;;;3.33;3.13;;;;;;;29.21;34.46;99930.69;10298469;28;20046;-61
2021/06/27 16:09:41;;;;;;;3.27;3.07;;;;;;;29.21;35.21;99916.16;10303292;28;20072;-61
2021/06/27 16:14:43;;;;;;;3.83;3.53;;;;;;;29.07;34.97;99912.97;10321164;28;21294;-62
2021/06/27 16:19:44;;;;;;;3.33;3.13;;;;;;;29.06;35.42;99917.59;10296258;28;20042;-61
2021/06/27 16:24:46;;;;;;;3.60;2.75;;;;;;;28.95;35.51;99909.53;10313075;28;20065;-61
2021/06/27 16:29:47;;;;;;;3.63;3.33;;;;;;;28.85;35.52;99911.00;10308290;28;20141;-63
2021/06/27 16:34:49;;;;;;;3.93;3.53;;;;;;;28.77;35.68;99916.94;10314149;28;20061;-62
2021/06/27 16:39:52;;;;;;;2.95;2.75;;;;;;;28.68;36.20;99907.50;10285054;28;20671;-61
2021/06/27 16:44:54;;;;;;;3.53;3.22;;;;;;;28.68;35.63;99907.50;10264021;28;20058;-61
2021/06/27 16:49:55;;;;;;;3.20;2.92;;;;;;;28.70;36.02;99905.34;10304144;28;22976;-60
2021/06/27 16:54:57;;;;;;;3.50;3.13;;;;;;;28.55;36.41;99898.53;10305456;28;20403;-60
2021/06/27 16:59:59;;;;;;;3.13;2.92;;;;;;;28.46;36.68;99893.72;10304081;28;20065;-63
2021/06/27 17:05:01;;;;;;;5.07;3.80;;;;;;;28.30;36.55;99896.25;10298242;28;20050;-61
2021/06/27 17:10:05;;;;;;;3.27;2.97;;;;;;;28.12;36.97;99897.31;10304126;28;20054;-62
2021/06/27 17:15:16;;;;;;;3.13;2.88;;;;;;;27.97;37.60;99902.50;10311249;28;20065;-62
2021/06/27 17:20:18;;;;;;;3.50;3.20;;;;;;;27.87;37.69;99911.34;10295312;28;20065;-61
2021/06/27 17:25:20;;;;;;;4.00;3.60;;;;;;;27.70;37.94;99908.59;10310659;28;20050;-61
2021/06/27 17:30:22;;;;;;;4.73;3.93;;;;;;;27.49;42.23;99938.25;10315729;28;20535;-66
2021/06/27 17:35:23;;;;;;;4.33;3.50;;;;;;;26.37;50.80;99945.56;10317244;28;20053;-63
2021/06/27 17:40:33;;;;;;;4.97;3.72;;;;;;;26.08;50.47;99936.41;10310072;28;20099;-63
2021/06/27 17:45:35;;;;;;;4.28;3.88;;;;;;;25.67;53.35;99930.66;10316478;28;20054;-62
2021/06/27 17:50:38;;;;;;;3.77;3.47;;;;;;;25.99;52.92;99916.81;10310246;28;20061;-61
2021/06/27 17:55:46;;;;;;;4.88;4.47;;;;;;;26.16;55.14;99913.41;10320603;28;20045;-62
2021/06/27 18:00:48;;;;;;;4.60;4.20;;;;;;;26.27;54.00;99899.78;10305065;28;20053;-62
2021/06/27 18:05:49;;;;;;;5.00;4.60;;;;;;;26.34;53.79;99888.75;10324400;28;20049;-60
2021/06/27 18:10:51;;;;;;;5.20;4.70;;;;;;;26.32;51.94;99881.84;10321540;28;20050;-61
2021/06/27 18:15:52;;;;;;;4.95;4.43;;;;;;;26.28;52.00;99871.41;10314736;28;20152;-62
2021/06/27 18:20:54;;;;;;;5.63;5.22;;;;;;;26.24;51.79;99869.41;10327063;28;20497;-62
2021/06/27 18:25:56;;;;;;;5.05;4.60;;;;;;;26.20;52.18;99862.78;10325530;28;20065;-61
2021/06/27 18:30:58;;;;;;;4.07;3.78;;;;;;;26.17;51.04;99874.16;10322452;28;20062;-61
2021/06/27 18:35:59;;;;;;;4.00;3.70;;;;;;;26.15;51.95;99866.19;10323562;28;20098;-61
2021/06/27 18:41:02;;;;;;;4.07;3.72;;;;;;;26.10;51.46;99871.53;10326900;28;20050;-61
2021/06/27 18:46:04;;;;;;;5.15;4.70;;;;;;;26.04;50.37;99873.28;10282367;28;1153334;-61
2021/06/27 18:51:06;;;;;;;5.00;4.60;;;;;;;25.97;50.32;99874.44;10321038;28;20057;-61
2021/06/27 18:56:08;;;;;;;4.60;4.20;;;;;;;25.93;49.91;99872.19;10301299;28;20053;-61
2021/06/27 19:01:10;;;;;;;5.15;4.55;;;;;;;25.88;49.56;99876.66;10323877;28;20061;-60
2021/06/27 19:06:14;;;;;;;;;;;;;;;25.85;49.48;99885.31;10318238;28;20200;-61
2021/06/27 19:11:15;;;;;;;5.50;4.90;;;;;;;25.76;49.58;99874.75;10320841;28;20370;-61
2021/06/27 19:16:17;;;;;;;5.97;5.47;;;;;;;25.75;49.58;99878.53;10300391;28;20064;-62
2021/06/27 19:21:19;;;;;;;6.25;5.75;;;;;;;25.66;51.19;99882.66;10322362;28;20116;-62
2021/06/27 19:26:21;;;;;;;6.70;5.70;;;;;;;25.64;52.27;99878.50;10306062;28;20157;-61
2021/06/27 19:31:22;;;;;;;6.25;5.65;;;;;;;25.61;53.13;99882.50;10321240;28;21999;-65
2021/06/27 19:36:28;;;;;;;7.07;6.25;;;;;;;25.39;54.53;99895.84;10307311;28;20057;-61
2021/06/27 19:41:30;;;;;;;5.25;4.85;;;;;;;25.25;54.17;99892.41;10301655;28;20050;-61
2021/06/27 19:46:33;;;;;;;5.07;4.63;;;;;;;25.30;53.31;99898.03;10316539;28;20226;-62
2021/06/27 19:51:35;;;;;;;5.13;4.32;;;;;;;25.32;52.02;99895.09;10313973;28;20045;-62
2021/06/27 19:56:36;;;;;;;4.78;4.40;;;;;;;25.32;51.44;99908.69;10319335;28;20069;-62
2021/06/27 20:01:39;;;;;;;4.60;4.30;;;;;;;25.29;51.57;99912.69;10322331;28;20042;-61
2021/06/27 20:06:41;;;;;;;4.93;4.53;;;;;;;25.24;51.71;99926.16;10294356;28;20049;-61
2021/06/27 20:11:44;;;;;;;4.88;4.25;;;;;;;25.21;51.68;99922.00;10316429;28;20046;-61
2021/06/27 20:16:46;;;;;;;6.97;5.05;;;;;;;25.25;51.85;99933.25;10303984;28;20069;-62
2021/06/27 20:21:48;;;;;;;;;;;;;;;25.23;52.46;99932.66;10323360;28;20042;-61
2021/06/27 20:26:50;;;;;;;5.10;4.70;;;;;;;25.20;52.11;99935.84;10331279;28;19922;-61
2021/06/27 20:31:52;;;;;;;5.65;5.15;;;;;;;25.17;52.66;99947.19;10322608;28;20615;-54
2021/06/27 20:36:53;;;;;;;4.88;4.47;;;;;;;25.12;52.03;99950.59;10305572;28;20061;-53
2021/06/27 20:41:55;;;;;;;5.68;3.90;;;;;;;25.11;50.79;99953.53;10305948;28;20050;-53
2021/06/27 20:46:57;;;;;;;5.22;4.72;;;;;;;25.09;49.99;99951.06;10302125;28;20058;-54
2021/06/27 20:51:58;;;;;;;5.60;5.20;;;;;;;25.02;50.83;99945.66;10312555;28;20205;-54
2021/06/27 20:57:00;;;;;;;6.05;5.45;;;;;;;24.89;52.26;99940.34;10303555;28;20070;-54
2021/06/27 21:02:01;;;;;;;5.53;5.13;;;;;;;24.84;52.47;99942.94;10303034;28;20056;-54
2021/06/27 21:07:03;;;;;;;5.25;4.85;;;;;;;24.78;53.07;99943.84;10305552;28;20121;-53
2021/06/27 21:12:05;;;;;;;5.55;5.15;;;;;;;24.73;53.55;99940.97;10331905;28;20529;-55
2021/06/27 21:17:07;;;;;;;5.40;4.90;;;;;;;24.63;53.99;99920.53;10339382;28;20048;-53
2021/06/27 21:22:09;;;;;;;5.63;5.13;;;;;;;24.60;53.79;99923.69;10328163;28;20058;-54
2021/06/27 21:27:10;;;;;;;4.63;4.23;;;;;;;24.57;54.16;99937.72;10337920;28;20050;-53
2021/06/27 21:32:12;;;;;;;5.50;5.10;;;;;;;24.51;54.24;99944.06;10351264;28;20045;-54
2021/06/27 21:37:14;;;;;;;5.18;4.30;;;;;;;24.45;54.22;99934.88;10325261;28;20045;-53
2021/06/27 21:42:15;;;;;;;7.00;4.57;;;;;;;24.40;54.48;99942.06;10347024;28;20061;-54
2021/06/27 21:47:17;;;;;;;6.38;4.75;;;;;;;24.33;54.93;99945.66;10328078;28;20719;-53
2021/06/27 21:52:19;;;;;;;5.35;4.85;;;;;;;24.28;55.34;99945.50;10348415;28;20045;-53
2021/06/27 21:57:20;;;;;;;5.65;5.18;;;;;;;24.24;55.88;99944.25;10332166;28;20082;-53
2021/06/27 22:02:22;;;;;;;4.72;4.32;;;;;;;24.23;55.79;99953.50;10339328;28;20049;-54
2021/06/27 22:07:23;;;;;;;5.20;4.72;;;;;;;24.18;57.40;99953.31;10350725;28;20053;-54
2021/06/27 22:12:25;;;;;;;5.65;5.25;;;;;;;24.19;57.19;99955.00;10348206;28;20387;-54
2021/06/27 22:17:27;;;;;;;5.47;5.07;;;;;;;24.20;57.10;99947.66;10343620;28;20517;-54
2021/06/27 22:22:29;;;;;;;8.52;5.25;;;;;;;24.20;56.46;99945.78;10345202;28;20053;-53
2021/06/27 22:27:31;;;;;;;5.82;5.32;;;;;;;24.21;56.88;99952.03;10337123;28;20388;-53
2021/06/27 22:32:32;;;;;;;7.35;5.75;;;;;;;24.23;57.32;99953.50;10349014;28;20522;-53
2021/06/27 22:37:34;;;;;;;5.70;5.20;;;;;;;24.22;56.38;99951.81;10349968;28;20042;-53
2021/06/27 22:42:37;;;;;;;5.88;5.40;;;;;;;24.18;57.02;99947.88;10349106;28;20062;-53
2021/06/27 22:47:39;;;;;;;7.30;5.60;;;;;;;24.13;57.21;99953.16;10342565;28;20065;-54
2021/06/27 22:52:41;;;;;;;6.28;5.43;;;;;;;24.02;58.18;99959.28;10348993;28;20056;-53
2021/06/27 22:57:42;;;;;;;6.05;5.53;;;;;;;23.91;58.86;99955.38;10340205;28;20057;-52
2021/06/27 23:02:45;;;;;;;6.93;6.10;;;;;;;23.81;59.26;99966.72;10348255;28;20611;-53
2021/06/27 23:07:47;;;;;;;5.68;5.18;;;;;;;23.64;60.28;99969.94;10335234;28;20061;-54
2021/06/27 23:12:49;;;;;;;6.60;5.32;;;;;;;23.37;61.52;99966.47;10346173;28;20530;-53
2021/06/27 23:17:50;;;;;;;5.95;5.35;;;;;;;23.43;62.74;99965.59;10327098;28;20042;-52
2021/06/27 23:22:52;;;;;;;5.63;5.13;;;;;;;23.53;61.75;99967.06;10335957;28;20053;-53